sensor_id;sensor_type;location;lat;lon;timestamp;temperature;humidity
12632;DHT22;6381;45.748;12.106;2023-04-25T00:00:05;13.50;99.90
12632;DHT22;6381;45.748;12.106;2023-04-25T00:02:39;13.60;99.90
12632;DHT22;6381;45.748;12.106;2023-04-25T00:05:09;13.60;99.90
12632;DHT22;6381;45.748;12.106;2023-04-25T00:07:38;13.40;99.90
12632;DHT22;6381;45.748;12.106;2023-04-25T00:10:09;13.40;99.90
12632;DHT22;6381;45.748;12.106;2023-04-25T00:15:09;13.50;99.90
12632;DHT22;6381;45.748;12.106;2023-04-25T00:17:39;13.40;99.90
12632;DHT22;6381;45.748;12.106;2023-04-25T00:20:09;13.30;99.90
12632;DHT22;6381;45.748;12.106;2023-04-25T00:22:38;13.40;99.90
12632;DHT22;6381;45.748;12.106;2023-04-25T00:25:08;13.40;99.90
12632;DHT22;6381;45.748;12.106;2023-04-25T00:27:36;13.40;99.90
12632;DHT22;6381;45.748;12.106;2023-04-25T00:30:07;13.40;99.90
12632;DHT22;6381;45.748;12.106;2023-04-25T00:32:36;13.20;99.90
12632;DHT22;6381;45.748;12.106;2023-04-25T00:35:07;13.10;99.90
12632;DHT22;6381;45.748;12.106;2023-04-25T00:37:36;13.10;99.90
12632;DHT22;6381;45.748;12.106;2023-04-25T00:40:06;13.10;99.90
12632;DHT22;6381;45.748;12.106;2023-04-25T00:42:36;13.20;99.90
12632;DHT22;6381;45.748;12.106;2023-04-25T00:45:06;13.10;99.90
12632;DHT22;6381;45.748;12.106;2023-04-25T00:47:36;13.20;99.90
12632;DHT22;6381;45.748;12.106;2023-04-25T00:50:08;13.00;99.90
12632;DHT22;6381;45.748;12.106;2023-04-25T00:52:40;13.00;99.90
12632;DHT22;6381;45.748;12.106;2023-04-25T00:55:10;13.30;99.90
12632;DHT22;6381;45.748;12.106;2023-04-25T00:57:39;13.40;99.90
12632;DHT22;6381;45.748;12.106;2023-04-25T01:00:10;13.40;99.90
12632;DHT22;6381;45.748;12.106;2023-04-25T01:02:41;13.40;99.90
12632;DHT22;6381;45.748;12.106;2023-04-25T01:05:12;13.30;99.90
12632;DHT22;6381;45.748;12.106;2023-04-25T01:07:40;13.20;99.90
12632;DHT22;6381;45.748;12.106;2023-04-25T01:10:09;13.40;99.90
12632;DHT22;6381;45.748;12.106;2023-04-25T01:12:39;13.50;99.90
12632;DHT22;6381;45.748;12.106;2023-04-25T01:15:09;13.40;99.90
12632;DHT22;6381;45.748;12.106;2023-04-25T01:17:38;13.40;99.90
12632;DHT22;6381;45.748;12.106;2023-04-25T01:20:11;13.30;99.90
12632;DHT22;6381;45.748;12.106;2023-04-25T01:22:42;13.00;99.90
12632;DHT22;6381;45.748;12.106;2023-04-25T01:25:11;13.10;99.90
12632;DHT22;6381;45.748;12.106;2023-04-25T01:27:40;13.30;99.90
12632;DHT22;6381;45.748;12.106;2023-04-25T01:30:09;13.20;99.90
12632;DHT22;6381;45.748;12.106;2023-04-25T01:32:40;13.20;99.90
12632;DHT22;6381;45.748;12.106;2023-04-25T01:35:11;13.30;99.90
12632;DHT22;6381;45.748;12.106;2023-04-25T01:37:42;13.30;99.90
12632;DHT22;6381;45.748;12.106;2023-04-25T01:42:43;13.00;99.90
12632;DHT22;6381;45.748;12.106;2023-04-25T01:45:12;12.90;99.90
12632;DHT22;6381;45.748;12.106;2023-04-25T01:47:41;12.70;99.90
12632;DHT22;6381;45.748;12.106;2023-04-25T01:50:11;12.80;99.90
12632;DHT22;6381;45.748;12.106;2023-04-25T01:52:41;12.80;99.90
12632;DHT22;6381;45.748;12.106;2023-04-25T01:55:11;13.00;99.90
12632;DHT22;6381;45.748;12.106;2023-04-25T01:57:49;12.90;99.90
12632;DHT22;6381;45.748;12.106;2023-04-25T02:00:23;12.90;99.90
12632;DHT22;6381;45.748;12.106;2023-04-25T02:02:52;13.00;99.90
12632;DHT22;6381;45.748;12.106;2023-04-25T02:05:28;12.90;99.90
12632;DHT22;6381;45.748;12.106;2023-04-25T02:08:05;12.80;99.90
12632;DHT22;6381;45.748;12.106;2023-04-25T02:10:34;12.80;99.90
12632;DHT22;6381;45.748;12.106;2023-04-25T02:13:18;12.80;99.90
12632;DHT22;6381;45.748;12.106;2023-04-25T02:16:03;12.70;99.90
12632;DHT22;6381;45.748;12.106;2023-04-25T02:18:32;12.60;99.90
12632;DHT22;6381;45.748;12.106;2023-04-25T02:21:01;12.60;99.90
12632;DHT22;6381;45.748;12.106;2023-04-25T02:23:31;12.70;99.90
12632;DHT22;6381;45.748;12.106;2023-04-25T02:26:00;12.90;99.90
12632;DHT22;6381;45.748;12.106;2023-04-25T02:28:29;12.80;99.90
12632;DHT22;6381;45.748;12.106;2023-04-25T02:30:58;12.50;99.90
12632;DHT22;6381;45.748;12.106;2023-04-25T02:33:27;12.70;99.90
12632;DHT22;6381;45.748;12.106;2023-04-25T02:35:57;12.80;99.90
12632;DHT22;6381;45.748;12.106;2023-04-25T02:38:26;12.70;99.90
12632;DHT22;6381;45.748;12.106;2023-04-25T02:40:58;12.70;99.90
12632;DHT22;6381;45.748;12.106;2023-04-25T02:43:26;12.70;99.90
12632;DHT22;6381;45.748;12.106;2023-04-25T02:45:55;12.50;99.90
12632;DHT22;6381;45.748;12.106;2023-04-25T02:50:53;12.20;99.90
12632;DHT22;6381;45.748;12.106;2023-04-25T02:53:22;12.20;99.90
12632;DHT22;6381;45.748;12.106;2023-04-25T02:55:53;11.70;99.90
12632;DHT22;6381;45.748;12.106;2023-04-25T02:58:23;11.90;99.90
12632;DHT22;6381;45.748;12.106;2023-04-25T03:00:53;12.10;99.90
12632;DHT22;6381;45.748;12.106;2023-04-25T03:03:22;12.30;99.90
12632;DHT22;6381;45.748;12.106;2023-04-25T03:05:52;12.50;99.90
12632;DHT22;6381;45.748;12.106;2023-04-25T03:08:25;12.50;99.90
12632;DHT22;6381;45.748;12.106;2023-04-25T03:10:59;12.50;99.90
12632;DHT22;6381;45.748;12.106;2023-04-25T03:13:29;12.40;99.90
12632;DHT22;6381;45.748;12.106;2023-04-25T03:16:00;12.30;99.90
12632;DHT22;6381;45.748;12.106;2023-04-25T03:18:29;12.30;99.90
12632;DHT22;6381;45.748;12.106;2023-04-25T03:20:58;12.10;99.90
12632;DHT22;6381;45.748;12.106;2023-04-25T03:23:27;12.20;99.90
12632;DHT22;6381;45.748;12.106;2023-04-25T03:25:58;12.40;99.90
12632;DHT22;6381;45.748;12.106;2023-04-25T03:28:28;12.50;99.90
12632;DHT22;6381;45.748;12.106;2023-04-25T03:30:58;12.60;99.90
12632;DHT22;6381;45.748;12.106;2023-04-25T03:33:26;12.30;99.90
12632;DHT22;6381;45.748;12.106;2023-04-25T03:35:55;12.30;99.90
12632;DHT22;6381;45.748;12.106;2023-04-25T03:38:24;12.20;99.90
12632;DHT22;6381;45.748;12.106;2023-04-25T03:40:54;12.10;99.90
12632;DHT22;6381;45.748;12.106;2023-04-25T03:43:37;12.30;99.90
12632;DHT22;6381;45.748;12.106;2023-04-25T03:46:10;12.30;99.90
12632;DHT22;6381;45.748;12.106;2023-04-25T03:48:40;12.30;99.90
12632;DHT22;6381;45.748;12.106;2023-04-25T03:51:14;12.30;99.90
12632;DHT22;6381;45.748;12.106;2023-04-25T03:53:45;12.30;99.90
12632;DHT22;6381;45.748;12.106;2023-04-25T03:56:14;12.30;99.90
12632;DHT22;6381;45.748;12.106;2023-04-25T03:58:47;12.40;99.90
12632;DHT22;6381;45.748;12.106;2023-04-25T04:01:19;12.70;99.90
12632;DHT22;6381;45.748;12.106;2023-04-25T04:03:48;12.70;99.90
12632;DHT22;6381;45.748;12.106;2023-04-25T04:06:17;12.90;99.90
12632;DHT22;6381;45.748;12.106;2023-04-25T04:08:53;13.00;99.90
12632;DHT22;6381;45.748;12.106;2023-04-25T04:11:23;12.90;99.90
12632;DHT22;6381;45.748;12.106;2023-04-25T04:13:53;13.00;99.90
12632;DHT22;6381;45.748;12.106;2023-04-25T04:16:22;12.80;99.90
12632;DHT22;6381;45.748;12.106;2023-04-25T04:18:51;12.70;99.90
12632;DHT22;6381;45.748;12.106;2023-04-25T04:21:20;12.70;99.90
12632;DHT22;6381;45.748;12.106;2023-04-25T04:23:48;12.50;99.90
12632;DHT22;6381;45.748;12.106;2023-04-25T04:26:18;12.60;99.90
12632;DHT22;6381;45.748;12.106;2023-04-25T04:29:08;12.50;99.90
12632;DHT22;6381;45.748;12.106;2023-04-25T04:31:40;12.60;99.90
12632;DHT22;6381;45.748;12.106;2023-04-25T04:34:10;12.50;99.90
12632;DHT22;6381;45.748;12.106;2023-04-25T04:36:40;12.70;99.90
12632;DHT22;6381;45.748;12.106;2023-04-25T04:39:09;12.80;99.90
12632;DHT22;6381;45.748;12.106;2023-04-25T04:41:52;12.80;99.90
12632;DHT22;6381;45.748;12.106;2023-04-25T04:44:45;12.70;99.90
12632;DHT22;6381;45.748;12.106;2023-04-25T04:47:26;12.70;99.90
12632;DHT22;6381;45.748;12.106;2023-04-25T04:50:18;12.60;99.90
12632;DHT22;6381;45.748;12.106;2023-04-25T04:53:13;12.80;99.90
12632;DHT22;6381;45.748;12.106;2023-04-25T04:55:57;12.80;99.90
12632;DHT22;6381;45.748;12.106;2023-04-25T04:58:45;12.80;99.90
12632;DHT22;6381;45.748;12.106;2023-04-25T05:01:37;12.90;99.90
12632;DHT22;6381;45.748;12.106;2023-04-25T05:04:42;12.70;99.90
12632;DHT22;6381;45.748;12.106;2023-04-25T05:07:36;12.70;99.90
12632;DHT22;6381;45.748;12.106;2023-04-25T05:10:10;12.90;99.90
12632;DHT22;6381;45.748;12.106;2023-04-25T05:13:02;12.80;99.90
12632;DHT22;6381;45.748;12.106;2023-04-25T05:15:49;12.80;99.90
12632;DHT22;6381;45.748;12.106;2023-04-25T05:18:35;12.80;99.90
12632;DHT22;6381;45.748;12.106;2023-04-25T05:21:24;12.90;99.90
12632;DHT22;6381;45.748;12.106;2023-04-25T05:24:23;12.70;99.90
12632;DHT22;6381;45.748;12.106;2023-04-25T05:27:28;12.80;99.90
12632;DHT22;6381;45.748;12.106;2023-04-25T05:30:26;12.70;99.90
12632;DHT22;6381;45.748;12.106;2023-04-25T05:33:00;12.80;99.90
12632;DHT22;6381;45.748;12.106;2023-04-25T05:35:30;12.70;99.90
12632;DHT22;6381;45.748;12.106;2023-04-25T05:38:00;12.80;99.90
12632;DHT22;6381;45.748;12.106;2023-04-25T05:41:04;12.70;99.90
12632;DHT22;6381;45.748;12.106;2023-04-25T05:44:00;12.80;99.90
12632;DHT22;6381;45.748;12.106;2023-04-25T05:46:44;12.80;99.90
12632;DHT22;6381;45.748;12.106;2023-04-25T05:49:25;12.80;99.90
12632;DHT22;6381;45.748;12.106;2023-04-25T05:52:19;12.60;99.90
12632;DHT22;6381;45.748;12.106;2023-04-25T05:54:55;12.60;99.90
12632;DHT22;6381;45.748;12.106;2023-04-25T05:57:27;12.50;99.90
12632;DHT22;6381;45.748;12.106;2023-04-25T05:59:56;12.60;99.90
12632;DHT22;6381;45.748;12.106;2023-04-25T06:02:39;12.50;99.90
12632;DHT22;6381;45.748;12.106;2023-04-25T06:05:10;12.50;99.90
12632;DHT22;6381;45.748;12.106;2023-04-25T06:07:40;12.80;99.90
12632;DHT22;6381;45.748;12.106;2023-04-25T06:10:09;12.70;99.90
12632;DHT22;6381;45.748;12.106;2023-04-25T06:12:38;12.60;99.90
12632;DHT22;6381;45.748;12.106;2023-04-25T06:15:08;12.50;99.90
12632;DHT22;6381;45.748;12.106;2023-04-25T06:17:54;12.70;99.90
12632;DHT22;6381;45.748;12.106;2023-04-25T06:20:23;12.70;99.90
12632;DHT22;6381;45.748;12.106;2023-04-25T06:22:56;12.70;99.90
12632;DHT22;6381;45.748;12.106;2023-04-25T06:25:35;12.70;99.90
12632;DHT22;6381;45.748;12.106;2023-04-25T06:28:04;12.60;99.90
12632;DHT22;6381;45.748;12.106;2023-04-25T06:30:34;12.60;99.90
12632;DHT22;6381;45.748;12.106;2023-04-25T06:33:07;12.70;99.90
12632;DHT22;6381;45.748;12.106;2023-04-25T06:35:38;12.60;99.90
12632;DHT22;6381;45.748;12.106;2023-04-25T06:38:11;12.60;99.90
12632;DHT22;6381;45.748;12.106;2023-04-25T06:40:44;12.70;99.90
12632;DHT22;6381;45.748;12.106;2023-04-25T06:43:14;12.90;99.90
12632;DHT22;6381;45.748;12.106;2023-04-25T06:46:03;12.80;99.90
12632;DHT22;6381;45.748;12.106;2023-04-25T06:48:37;12.60;99.90
12632;DHT22;6381;45.748;12.106;2023-04-25T06:51:05;12.60;99.90
12632;DHT22;6381;45.748;12.106;2023-04-25T06:53:39;12.60;99.90
12632;DHT22;6381;45.748;12.106;2023-04-25T06:56:14;12.50;99.90
12632;DHT22;6381;45.748;12.106;2023-04-25T06:58:51;12.50;99.90
12632;DHT22;6381;45.748;12.106;2023-04-25T07:01:35;12.80;99.90
12632;DHT22;6381;45.748;12.106;2023-04-25T07:04:09;12.70;99.90
12632;DHT22;6381;45.748;12.106;2023-04-25T07:06:44;12.80;99.90
12632;DHT22;6381;45.748;12.106;2023-04-25T07:09:18;12.90;99.90
12632;DHT22;6381;45.748;12.106;2023-04-25T07:11:49;12.80;99.90
12632;DHT22;6381;45.748;12.106;2023-04-25T07:14:18;12.80;99.90
12632;DHT22;6381;45.748;12.106;2023-04-25T07:16:46;12.60;99.90
12632;DHT22;6381;45.748;12.106;2023-04-25T07:19:15;12.60;99.90
12632;DHT22;6381;45.748;12.106;2023-04-25T07:21:44;12.80;99.90
12632;DHT22;6381;45.748;12.106;2023-04-25T07:24:13;12.90;99.90
12632;DHT22;6381;45.748;12.106;2023-04-25T07:26:47;12.90;99.90
12632;DHT22;6381;45.748;12.106;2023-04-25T07:29:27;13.00;99.90
12632;DHT22;6381;45.748;12.106;2023-04-25T07:31:58;12.90;99.90
12632;DHT22;6381;45.748;12.106;2023-04-25T07:34:27;12.80;99.90
12632;DHT22;6381;45.748;12.106;2023-04-25T07:36:57;12.70;99.90
12632;DHT22;6381;45.748;12.106;2023-04-25T07:39:33;12.70;99.90
12632;DHT22;6381;45.748;12.106;2023-04-25T07:42:05;12.80;99.90
12632;DHT22;6381;45.748;12.106;2023-04-25T07:44:38;12.70;99.90
12632;DHT22;6381;45.748;12.106;2023-04-25T07:47:09;12.90;99.90
12632;DHT22;6381;45.748;12.106;2023-04-25T07:49:38;12.60;99.90
12632;DHT22;6381;45.748;12.106;2023-04-25T07:52:07;12.80;99.90
12632;DHT22;6381;45.748;12.106;2023-04-25T07:54:38;12.80;99.90
12632;DHT22;6381;45.748;12.106;2023-04-25T07:57:16;12.70;99.90
12632;DHT22;6381;45.748;12.106;2023-04-25T07:59:47;12.60;99.90
12632;DHT22;6381;45.748;12.106;2023-04-25T08:02:16;12.50;99.90
12632;DHT22;6381;45.748;12.106;2023-04-25T08:04:45;12.40;99.90
12632;DHT22;6381;45.748;12.106;2023-04-25T08:07:16;12.30;99.90
12632;DHT22;6381;45.748;12.106;2023-04-25T08:09:50;12.20;99.90
12632;DHT22;6381;45.748;12.106;2023-04-25T08:12:29;12.20;99.90
12632;DHT22;6381;45.748;12.106;2023-04-25T08:14:58;12.20;99.90
12632;DHT22;6381;45.748;12.106;2023-04-25T08:17:32;12.30;99.90
12632;DHT22;6381;45.748;12.106;2023-04-25T08:20:01;12.30;99.90
12632;DHT22;6381;45.748;12.106;2023-04-25T08:22:33;12.30;99.90
12632;DHT22;6381;45.748;12.106;2023-04-25T08:25:21;12.20;99.90
12632;DHT22;6381;45.748;12.106;2023-04-25T08:27:54;12.10;99.90
12632;DHT22;6381;45.748;12.106;2023-04-25T08:30:23;12.10;99.90
12632;DHT22;6381;45.748;12.106;2023-04-25T08:32:52;12.00;99.90
12632;DHT22;6381;45.748;12.106;2023-04-25T08:38:19;12.10;99.90
12632;DHT22;6381;45.748;12.106;2023-04-25T08:40:50;12.10;99.90
12632;DHT22;6381;45.748;12.106;2023-04-25T08:43:23;12.10;99.90
12632;DHT22;6381;45.748;12.106;2023-04-25T08:45:53;12.00;99.90
12632;DHT22;6381;45.748;12.106;2023-04-25T08:48:34;11.80;99.90
12632;DHT22;6381;45.748;12.106;2023-04-25T08:51:07;11.90;99.90
12632;DHT22;6381;45.748;12.106;2023-04-25T08:53:41;11.80;99.90
12632;DHT22;6381;45.748;12.106;2023-04-25T08:56:16;11.80;99.90
12632;DHT22;6381;45.748;12.106;2023-04-25T09:01:19;11.70;99.90
12632;DHT22;6381;45.748;12.106;2023-04-25T09:08:53;12.10;99.90
12632;DHT22;6381;45.748;12.106;2023-04-25T09:11:22;11.90;99.90
12632;DHT22;6381;45.748;12.106;2023-04-25T09:14:10;12.00;99.90
12632;DHT22;6381;45.748;12.106;2023-04-25T09:17:03;11.90;99.90
12632;DHT22;6381;45.748;12.106;2023-04-25T09:19:39;11.90;99.90
12632;DHT22;6381;45.748;12.106;2023-04-25T09:22:17;11.90;99.90
12632;DHT22;6381;45.748;12.106;2023-04-25T09:24:49;12.00;99.90
12632;DHT22;6381;45.748;12.106;2023-04-25T09:27:21;11.90;99.90
12632;DHT22;6381;45.748;12.106;2023-04-25T09:30:15;11.00;99.90
12632;DHT22;6381;45.748;12.106;2023-04-25T09:33:05;12.20;99.90
12632;DHT22;6381;45.748;12.106;2023-04-25T09:35:37;12.40;99.90
12632;DHT22;6381;45.748;12.106;2023-04-25T09:38:10;12.40;99.90
12632;DHT22;6381;45.748;12.106;2023-04-25T09:40:48;12.40;99.90
12632;DHT22;6381;45.748;12.106;2023-04-25T09:43:26;12.40;99.90
12632;DHT22;6381;45.748;12.106;2023-04-25T09:45:57;12.50;99.90
12632;DHT22;6381;45.748;12.106;2023-04-25T09:48:29;12.40;99.90
12632;DHT22;6381;45.748;12.106;2023-04-25T09:53:38;12.20;99.90
12632;DHT22;6381;45.748;12.106;2023-04-25T09:56:32;12.30;99.90
12632;DHT22;6381;45.748;12.106;2023-04-25T09:59:06;12.40;99.90
12632;DHT22;6381;45.748;12.106;2023-04-25T10:01:40;12.20;99.90
12632;DHT22;6381;45.748;12.106;2023-04-25T10:04:24;12.40;99.90
12632;DHT22;6381;45.748;12.106;2023-04-25T10:07:03;12.80;99.90
12632;DHT22;6381;45.748;12.106;2023-04-25T10:09:33;12.80;99.90
12632;DHT22;6381;45.748;12.106;2023-04-25T10:12:02;12.90;99.90
12632;DHT22;6381;45.748;12.106;2023-04-25T10:14:37;13.00;99.90
12632;DHT22;6381;45.748;12.106;2023-04-25T10:17:10;13.00;99.90
12632;DHT22;6381;45.748;12.106;2023-04-25T10:19:39;12.80;99.90
12632;DHT22;6381;45.748;12.106;2023-04-25T10:22:11;12.90;99.90
12632;DHT22;6381;45.748;12.106;2023-04-25T10:24:42;13.10;99.90
12632;DHT22;6381;45.748;12.106;2023-04-25T10:27:11;13.30;99.90
12632;DHT22;6381;45.748;12.106;2023-04-25T10:29:41;13.50;99.90
12632;DHT22;6381;45.748;12.106;2023-04-25T10:32:12;13.90;99.90
12632;DHT22;6381;45.748;12.106;2023-04-25T10:34:43;13.70;99.90
12632;DHT22;6381;45.748;12.106;2023-04-25T10:37:14;13.80;99.90
12632;DHT22;6381;45.748;12.106;2023-04-25T10:39:43;13.90;99.90
12632;DHT22;6381;45.748;12.106;2023-04-25T10:42:13;14.40;99.90
12632;DHT22;6381;45.748;12.106;2023-04-25T10:45:01;14.50;99.90
12632;DHT22;6381;45.748;12.106;2023-04-25T10:47:36;14.80;99.90
12632;DHT22;6381;45.748;12.106;2023-04-25T10:50:07;14.90;99.90
12632;DHT22;6381;45.748;12.106;2023-04-25T10:52:38;14.90;99.90
12632;DHT22;6381;45.748;12.106;2023-04-25T10:55:08;14.60;99.90
12632;DHT22;6381;45.748;12.106;2023-04-25T10:57:38;15.10;99.90
12632;DHT22;6381;45.748;12.106;2023-04-25T11:00:15;15.60;99.90
12632;DHT22;6381;45.748;12.106;2023-04-25T11:02:47;16.10;99.90
12632;DHT22;6381;45.748;12.106;2023-04-25T11:05:23;16.30;99.90
12632;DHT22;6381;45.748;12.106;2023-04-25T11:07:54;16.60;99.90
12632;DHT22;6381;45.748;12.106;2023-04-25T11:10:33;16.10;99.90
12632;DHT22;6381;45.748;12.106;2023-04-25T11:13:05;16.00;99.90
12632;DHT22;6381;45.748;12.106;2023-04-25T11:15:34;16.80;99.90
12632;DHT22;6381;45.748;12.106;2023-04-25T11:18:04;17.10;99.90
12632;DHT22;6381;45.748;12.106;2023-04-25T11:20:36;16.90;99.90
12632;DHT22;6381;45.748;12.106;2023-04-25T11:23:05;16.30;99.90
12632;DHT22;6381;45.748;12.106;2023-04-25T11:25:34;16.70;99.90
12632;DHT22;6381;45.748;12.106;2023-04-25T11:28:05;17.10;99.90
12632;DHT22;6381;45.748;12.106;2023-04-25T11:30:33;17.50;99.90
12632;DHT22;6381;45.748;12.106;2023-04-25T11:33:05;17.10;99.90
12632;DHT22;6381;45.748;12.106;2023-04-25T11:35:34;17.40;98.60
12632;DHT22;6381;45.748;12.106;2023-04-25T11:38:03;16.20;99.10
12632;DHT22;6381;45.748;12.106;2023-04-25T11:40:32;16.60;99.90
12632;DHT22;6381;45.748;12.106;2023-04-25T11:43:02;17.30;98.50
12632;DHT22;6381;45.748;12.106;2023-04-25T11:45:31;17.40;97.50
12632;DHT22;6381;45.748;12.106;2023-04-25T11:48:01;17.30;95.10
12632;DHT22;6381;45.748;12.106;2023-04-25T11:50:32;18.10;97.40
12632;DHT22;6381;45.748;12.106;2023-04-25T11:53:01;18.30;94.80
12632;DHT22;6381;45.748;12.106;2023-04-25T11:55:31;18.00;94.60
12632;DHT22;6381;45.748;12.106;2023-04-25T11:58:00;17.40;93.40
12632;DHT22;6381;45.748;12.106;2023-04-25T12:00:30;17.00;95.30
12632;DHT22;6381;45.748;12.106;2023-04-25T12:02:59;16.70;95.90
12632;DHT22;6381;45.748;12.106;2023-04-25T12:05:29;18.00;95.50
12632;DHT22;6381;45.748;12.106;2023-04-25T12:08:12;18.50;92.90
12632;DHT22;6381;45.748;12.106;2023-04-25T12:10:42;17.80;93.20
12632;DHT22;6381;45.748;12.106;2023-04-25T12:13:21;17.30;91.90
12632;DHT22;6381;45.748;12.106;2023-04-25T12:15:54;16.80;93.40
12632;DHT22;6381;45.748;12.106;2023-04-25T12:18:24;17.00;93.70
12632;DHT22;6381;45.748;12.106;2023-04-25T12:20:55;17.60;93.10
12632;DHT22;6381;45.748;12.106;2023-04-25T12:25:59;19.20;82.40
12632;DHT22;6381;45.748;12.106;2023-04-25T12:28:32;19.20;80.80
12632;DHT22;6381;45.748;12.106;2023-04-25T12:31:02;18.70;78.90
12632;DHT22;6381;45.748;12.106;2023-04-25T12:33:33;17.80;81.50
12632;DHT22;6381;45.748;12.106;2023-04-25T12:36:03;17.10;81.40
12632;DHT22;6381;45.748;12.106;2023-04-25T12:38:38;16.90;92.90
12632;DHT22;6381;45.748;12.106;2023-04-25T12:41:07;16.70;87.80
12632;DHT22;6381;45.748;12.106;2023-04-25T12:43:36;17.00;87.80
12632;DHT22;6381;45.748;12.106;2023-04-25T12:46:05;16.60;82.80
12632;DHT22;6381;45.748;12.106;2023-04-25T12:48:34;16.60;87.90
12632;DHT22;6381;45.748;12.106;2023-04-25T12:51:03;16.70;90.60
12632;DHT22;6381;45.748;12.106;2023-04-25T12:53:32;16.40;87.40
12632;DHT22;6381;45.748;12.106;2023-04-25T12:56:06;16.10;90.40
12632;DHT22;6381;45.748;12.106;2023-04-25T12:58:35;15.90;90.00
12632;DHT22;6381;45.748;12.106;2023-04-25T13:01:04;15.80;88.10
12632;DHT22;6381;45.748;12.106;2023-04-25T13:03:34;15.80;88.50
12632;DHT22;6381;45.748;12.106;2023-04-25T13:06:04;15.70;89.90
12632;DHT22;6381;45.748;12.106;2023-04-25T13:08:32;15.80;90.50
12632;DHT22;6381;45.748;12.106;2023-04-25T13:11:02;15.60;89.40
12632;DHT22;6381;45.748;12.106;2023-04-25T13:13:32;15.60;90.10
12632;DHT22;6381;45.748;12.106;2023-04-25T13:16:02;15.80;88.50
12632;DHT22;6381;45.748;12.106;2023-04-25T13:18:31;15.80;88.00
12632;DHT22;6381;45.748;12.106;2023-04-25T13:21:00;17.00;88.50
12632;DHT22;6381;45.748;12.106;2023-04-25T13:23:29;19.00;81.50
12632;DHT22;6381;45.748;12.106;2023-04-25T13:25:58;18.20;77.50
12632;DHT22;6381;45.748;12.106;2023-04-25T13:28:28;17.30;77.80
12632;DHT22;6381;45.748;12.106;2023-04-25T13:30:59;17.30;79.30
12632;DHT22;6381;45.748;12.106;2023-04-25T13:35:56;19.50;70.90
12632;DHT22;6381;45.748;12.106;2023-04-25T13:38:25;20.20;69.90
12632;DHT22;6381;45.748;12.106;2023-04-25T13:40:54;19.50;69.00
12632;DHT22;6381;45.748;12.106;2023-04-25T13:43:23;20.00;69.60
12632;DHT22;6381;45.748;12.106;2023-04-25T13:45:52;19.90;68.90
12632;DHT22;6381;45.748;12.106;2023-04-25T13:48:24;20.50;68.60
12632;DHT22;6381;45.748;12.106;2023-04-25T13:50:52;19.10;65.80
12632;DHT22;6381;45.748;12.106;2023-04-25T13:53:22;18.10;66.70
12632;DHT22;6381;45.748;12.106;2023-04-25T13:55:51;19.40;63.00
12632;DHT22;6381;45.748;12.106;2023-04-25T13:58:20;20.30;66.20
12632;DHT22;6381;45.748;12.106;2023-04-25T14:00:49;20.30;63.70
12632;DHT22;6381;45.748;12.106;2023-04-25T14:03:18;19.60;63.80
12632;DHT22;6381;45.748;12.106;2023-04-25T14:05:48;19.80;62.10
12632;DHT22;6381;45.748;12.106;2023-04-25T14:08:17;20.00;64.10
12632;DHT22;6381;45.748;12.106;2023-04-25T14:10:46;19.70;63.50
12632;DHT22;6381;45.748;12.106;2023-04-25T14:13:14;19.00;65.40
12632;DHT22;6381;45.748;12.106;2023-04-25T14:15:43;18.20;66.90
12632;DHT22;6381;45.748;12.106;2023-04-25T14:18:12;17.60;68.80
12632;DHT22;6381;45.748;12.106;2023-04-25T14:20:41;17.50;70.60
12632;DHT22;6381;45.748;12.106;2023-04-25T14:23:11;17.00;75.20
12632;DHT22;6381;45.748;12.106;2023-04-25T14:25:41;16.70;77.60
12632;DHT22;6381;45.748;12.106;2023-04-25T14:28:11;16.60;74.10
12632;DHT22;6381;45.748;12.106;2023-04-25T14:30:39;16.70;74.70
12632;DHT22;6381;45.748;12.106;2023-04-25T14:33:08;16.60;75.40
12632;DHT22;6381;45.748;12.106;2023-04-25T14:35:37;16.70;76.20
12632;DHT22;6381;45.748;12.106;2023-04-25T14:38:06;16.50;80.00
12632;DHT22;6381;45.748;12.106;2023-04-25T14:40:36;16.50;80.50
12632;DHT22;6381;45.748;12.106;2023-04-25T14:43:05;16.30;81.50
12632;DHT22;6381;45.748;12.106;2023-04-25T14:45:34;16.40;82.50
12632;DHT22;6381;45.748;12.106;2023-04-25T14:48:04;16.40;80.40
12632;DHT22;6381;45.748;12.106;2023-04-25T14:50:33;16.40;78.30
12632;DHT22;6381;45.748;12.106;2023-04-25T14:53:02;16.40;78.30
12632;DHT22;6381;45.748;12.106;2023-04-25T14:55:30;16.30;77.70
12632;DHT22;6381;45.748;12.106;2023-04-25T14:58:01;15.80;78.30
12632;DHT22;6381;45.748;12.106;2023-04-25T15:00:29;15.80;80.00
12632;DHT22;6381;45.748;12.106;2023-04-25T15:02:59;16.10;82.20
12632;DHT22;6381;45.748;12.106;2023-04-25T15:05:28;15.90;80.50
12632;DHT22;6381;45.748;12.106;2023-04-25T15:07:57;15.70;82.70
12632;DHT22;6381;45.748;12.106;2023-04-25T15:10:26;15.80;83.20
12632;DHT22;6381;45.748;12.106;2023-04-25T15:12:54;15.90;82.90
12632;DHT22;6381;45.748;12.106;2023-04-25T15:15:25;16.00;82.70
12632;DHT22;6381;45.748;12.106;2023-04-25T15:17:54;15.60;83.20
12632;DHT22;6381;45.748;12.106;2023-04-25T15:20:25;15.50;86.60
12632;DHT22;6381;45.748;12.106;2023-04-25T15:22:54;15.30;87.40
12632;DHT22;6381;45.748;12.106;2023-04-25T15:25:24;15.10;88.50
12632;DHT22;6381;45.748;12.106;2023-04-25T15:27:53;15.30;90.20
12632;DHT22;6381;45.748;12.106;2023-04-25T15:30:22;15.10;91.40
12632;DHT22;6381;45.748;12.106;2023-04-25T15:32:52;15.00;92.10
12632;DHT22;6381;45.748;12.106;2023-04-25T15:35:21;14.90;93.10
12632;DHT22;6381;45.748;12.106;2023-04-25T15:37:50;14.80;94.50
12632;DHT22;6381;45.748;12.106;2023-04-25T15:40:19;14.70;94.20
12632;DHT22;6381;45.748;12.106;2023-04-25T15:42:49;14.50;94.10
12632;DHT22;6381;45.748;12.106;2023-04-25T15:45:21;14.30;93.40
12632;DHT22;6381;45.748;12.106;2023-04-25T15:47:55;14.30;94.00
12632;DHT22;6381;45.748;12.106;2023-04-25T15:50:24;14.30;95.00
12632;DHT22;6381;45.748;12.106;2023-04-25T15:52:53;14.40;96.20
12632;DHT22;6381;45.748;12.106;2023-04-25T15:55:22;14.30;97.00
12632;DHT22;6381;45.748;12.106;2023-04-25T15:57:53;14.20;97.60
12632;DHT22;6381;45.748;12.106;2023-04-25T16:00:22;14.20;97.40
12632;DHT22;6381;45.748;12.106;2023-04-25T16:02:50;14.40;96.70
12632;DHT22;6381;45.748;12.106;2023-04-25T16:05:21;14.20;95.60
12632;DHT22;6381;45.748;12.106;2023-04-25T16:07:50;14.00;96.40
12632;DHT22;6381;45.748;12.106;2023-04-25T16:10:20;14.20;96.20
12632;DHT22;6381;45.748;12.106;2023-04-25T16:12:49;14.50;97.20
12632;DHT22;6381;45.748;12.106;2023-04-25T16:15:18;14.60;97.80
12632;DHT22;6381;45.748;12.106;2023-04-25T16:17:46;14.90;96.70
12632;DHT22;6381;45.748;12.106;2023-04-25T16:20:16;15.20;94.90
12632;DHT22;6381;45.748;12.106;2023-04-25T16:22:46;15.10;97.20
12632;DHT22;6381;45.748;12.106;2023-04-25T16:25:15;14.20;99.20
12632;DHT22;6381;45.748;12.106;2023-04-25T16:30:13;15.50;93.80